Time,TemperatureF,DewpointF,PressureIn,WindDirection,WindDirectionDegrees,WindSpeedMPH,WindSpeedGustMPH,Humidity,HourlyPrecipIn,Conditions,Clouds,dailyrainin,SoftwareType,DateUTC
2013-11-09 00:12:00,38.7,28.3,30.05,South,180,2.7,-999.0,66,-99.99,,,0.00,Acu-Link.com,2013-11-09 05:12:00,
2013-11-09 00:27:00,37.8,27.8,30.05,SSE,157,2.7,-999.0,67,-99.99,,,0.00,Acu-Link.com,2013-11-09 05:27:00,
2013-11-09 00:42:00,38.1,27.8,30.04,SSE,157,3.2,-999.0,66,-99.99,,,0.00,Acu-Link.com,2013-11-09 05:42:00,
2013-11-09 00:58:00,38.1,28.1,30.03,SE,135,1.7,-999.0,67,-99.99,,,0.00,Acu-Link.com,2013-11-09 05:58:00,
2013-11-09 01:13:00,37.9,27.9,30.03,SW,225,0.0,-999.0,67,-99.99,,,0.00,Acu-Link.com,2013-11-09 06:13:00,
2013-11-09 01:28:00,36.5,27.7,30.05,South,180,0.0,-999.0,70,-99.99,,,0.00,Acu-Link.com,2013-11-09 06:28:00,
2013-11-09 01:43:00,36.1,27.6,30.05,South,180,0.0,-999.0,71,-99.99,,,0.00,Acu-Link.com,2013-11-09 06:43:00,
2013-11-09 01:59:00,36.1,27.6,30.04,South,180,3.2,-999.0,71,-99.99,,,0.00,Acu-Link.com,2013-11-09 06:59:00,
2013-11-09 02:14:00,36.3,27.5,30.03,South,180,2.2,-999.0,70,-99.99,,,0.00,Acu-Link.com,2013-11-09 07:14:00,
2013-11-09 02:29:00,35.2,27.1,30.03,South,180,0.0,-999.0,72,-99.99,,,0.00,Acu-Link.com,2013-11-09 07:29:00,
2013-11-09 02:44:00,34.3,26.9,30.03,SSW,202,0.0,-999.0,74,-99.99,,,0.00,Acu-Link.com,2013-11-09 07:44:00,
2013-11-09 03:00:00,34.5,26.8,30.03,South,180,1.7,-999.0,73,-99.99,,,0.00,Acu-Link.com,2013-11-09 08:00:00,
2013-11-09 03:15:00,34.2,26.5,30.03,South,180,2.2,-999.0,73,-99.99,,,0.00,Acu-Link.com,2013-11-09 08:15:00,
2013-11-09 03:30:00,34.7,26.9,30.02,SSE,157,3.2,-999.0,73,-99.99,,,0.00,Acu-Link.com,2013-11-09 08:30:00,
2013-11-09 03:45:00,35.1,27.0,30.01,South,180,2.7,-999.0,72,-99.99,,,0.00,Acu-Link.com,2013-11-09 08:45:00,
2013-11-09 04:01:00,35.2,26.8,30.00,SSE,157,3.7,-999.0,71,-99.99,,,0.00,Acu-Link.com,2013-11-09 09:01:00,
2013-11-09 04:16:00,35.4,26.6,30.01,East,90,3.7,-999.0,70,-99.99,,,0.00,Acu-Link.com,2013-11-09 09:16:00,
2013-11-09 04:31:00,34.9,26.5,30.01,SSE,157,2.2,-999.0,71,-99.99,,,0.00,Acu-Link.com,2013-11-09 09:31:00,
2013-11-09 04:46:00,34.5,26.4,30.00,SSE,157,2.7,-999.0,72,-99.99,,,0.00,Acu-Link.com,2013-11-09 09:46:00,
2013-11-09 05:01:00,34.5,26.1,30.00,SSE,157,2.2,-999.0,71,-99.99,,,0.00,Acu-Link.com,2013-11-09 10:01:00,
2013-11-09 05:16:00,33.6,25.9,30.00,South,180,0.0,-999.0,73,-99.99,,,0.00,Acu-Link.com,2013-11-09 10:16:00,
2013-11-09 05:31:00,33.6,26.2,30.01,SSE,157,1.1,-999.0,74,-99.99,,,0.00,Acu-Link.com,2013-11-09 10:31:00,
2013-11-09 05:47:00,33.1,25.7,30.00,SE,135,2.2,-999.0,74,-99.99,,,0.00,Acu-Link.com,2013-11-09 10:47:00,
2013-11-09 06:02:00,33.1,25.7,30.00,South,180,0.0,-999.0,74,-99.99,,,0.00,Acu-Link.com,2013-11-09 11:02:00,
2013-11-09 06:17:00,33.4,26.0,30.00,SSE,157,1.7,-999.0,74,-99.99,,,0.00,Acu-Link.com,2013-11-09 11:17:00,
2013-11-09 06:33:00,34.9,26.5,30.00,SSE,157,2.7,-999.0,71,-99.99,,,0.00,Acu-Link.com,2013-11-09 11:33:00,
2013-11-09 06:48:00,35.2,26.4,30.00,SSE,157,4.7,-999.0,70,-99.99,,,0.00,Acu-Link.com,2013-11-09 11:48:00,
2013-11-09 07:03:00,35.6,26.5,30.00,South,180,4.7,-999.0,69,-99.99,,,0.00,Acu-Link.com,2013-11-09 12:03:00,
2013-11-09 07:18:00,36.0,26.8,30.00,SE,135,5.3,-999.0,69,-99.99,,,0.00,Acu-Link.com,2013-11-09 12:18:00,
2013-11-09 07:33:00,35.8,26.6,30.00,SSE,157,4.7,-999.0,69,-99.99,,,0.00,Acu-Link.com,2013-11-09 12:33:00,
2013-11-09 07:48:00,36.3,26.8,30.00,South,180,4.2,-999.0,68,-99.99,,,0.00,Acu-Link.com,2013-11-09 12:48:00,
2013-11-09 08:03:00,36.9,27.3,30.00,SSW,202,2.7,-999.0,68,-99.99,,,0.00,Acu-Link.com,2013-11-09 13:03:00,
2013-11-09 08:19:00,38.3,28.0,30.01,SSE,157,5.3,-999.0,66,-99.99,,,0.00,Acu-Link.com,2013-11-09 13:19:00,
2013-11-09 08:34:00,40.1,28.1,30.01,SSW,202,4.2,-999.0,62,-99.99,,,0.00,Acu-Link.com,2013-11-09 13:34:00,
2013-11-09 08:49:00,41.5,29.1,30.01,South,180,4.7,-999.0,61,-99.99,,,0.00,Acu-Link.com,2013-11-09 13:49:00,
2013-11-09 09:04:00,42.6,28.9,30.01,ESE,112,6.8,-999.0,58,-99.99,,,0.00,Acu-Link.com,2013-11-09 14:04:00,
2013-11-09 09:19:00,43.5,29.3,30.01,SE,135,5.3,-999.0,57,-99.99,,,0.00,Acu-Link.com,2013-11-09 14:19:00,
2013-11-09 09:35:00,45.3,30.1,30.00,SW,225,4.2,-999.0,55,-99.99,,,0.00,Acu-Link.com,2013-11-09 14:35:00,
2013-11-09 09:50:00,46.4,30.7,30.00,ESE,112,4.2,-999.0,54,-99.99,,,0.00,Acu-Link.com,2013-11-09 14:50:00,
2013-11-09 10:05:00,48.4,32.1,30.00,SSW,202,4.7,-999.0,53,-99.99,,,0.00,Acu-Link.com,2013-11-09 15:05:00,
2013-11-09 10:20:00,49.8,31.9,29.99,SSW,202,5.3,-999.0,50,-99.99,,,0.00,Acu-Link.com,2013-11-09 15:20:00,
2013-11-09 10:36:00,52.0,33.4,29.99,SSE,157,7.8,-999.0,49,-99.99,,,0.00,Acu-Link.com,2013-11-09 15:36:00,
2013-11-09 10:51:00,52.5,32.9,29.98,South,180,6.8,-999.0,47,-99.99,,,0.00,Acu-Link.com,2013-11-09 15:51:00,
2013-11-09 11:06:00,53.2,33.0,29.97,South,180,6.3,-999.0,46,-99.99,,,0.00,Acu-Link.com,2013-11-09 16:06:00,
2013-11-09 11:21:00,56.1,34.5,29.97,South,180,9.4,-999.0,44,-99.99,,,0.00,Acu-Link.com,2013-11-09 16:21:00,
2013-11-09 11:36:00,57.4,31.3,29.96,WSW,247,7.8,-999.0,37,-99.99,,,0.00,Acu-Link.com,2013-11-09 16:36:00,
2013-11-09 11:52:00,57.2,29.1,29.95,South,180,12.5,-999.0,34,-99.99,,,0.00,Acu-Link.com,2013-11-09 16:52:00,
2013-11-09 12:07:00,58.3,29.3,29.95,SW,225,6.8,-999.0,33,-99.99,,,0.00,Acu-Link.com,2013-11-09 17:07:00,
2013-11-09 12:22:00,57.9,29.0,29.94,SSW,202,6.8,-999.0,33,-99.99,,,0.00,Acu-Link.com,2013-11-09 17:22:00,
2013-11-09 12:37:00,59.0,30.7,29.93,SW,225,7.3,-999.0,34,-99.99,,,0.00,Acu-Link.com,2013-11-09 17:37:00,
2013-11-09 12:53:00,58.6,29.6,29.92,SSE,157,6.8,-999.0,33,-99.99,,,0.00,Acu-Link.com,2013-11-09 17:53:00,
2013-11-09 13:08:00,58.8,30.5,29.91,WSW,247,9.4,-999.0,34,-99.99,,,0.00,Acu-Link.com,2013-11-09 18:08:00,
2013-11-09 13:23:00,59.4,31.0,29.91,SW,225,4.7,-999.0,34,-99.99,,,0.00,Acu-Link.com,2013-11-09 18:23:00,
2013-11-09 13:38:00,59.7,30.6,29.91,WSW,247,5.3,-999.0,33,-99.99,,,0.00,Acu-Link.com,2013-11-09 18:38:00,
2013-11-09 13:53:00,60.1,30.1,29.90,SW,225,11.4,-999.0,32,-99.99,,,0.00,Acu-Link.com,2013-11-09 18:53:00,
2013-11-09 14:08:00,60.1,28.6,29.90,WSW,247,14.5,-999.0,30,-99.99,,,0.00,Acu-Link.com,2013-11-09 19:08:00,
2013-11-09 14:23:00,58.6,28.1,29.90,SSE,157,6.8,-999.0,31,-99.99,,,0.00,Acu-Link.com,2013-11-09 19:23:00,
2013-11-09 14:38:00,59.5,28.0,29.90,West,270,9.9,-999.0,30,-99.99,,,0.00,Acu-Link.com,2013-11-09 19:38:00,
2013-11-09 14:54:00,59.2,27.0,29.90,WSW,247,8.9,-999.0,29,-99.99,,,0.00,Acu-Link.com,2013-11-09 19:54:00,
2013-11-09 15:09:00,59.7,29.8,29.90,West,270,2.7,-999.0,32,-99.99,,,0.00,Acu-Link.com,2013-11-09 20:09:00,
2013-11-09 15:24:00,60.6,31.3,29.90,West,270,7.3,-999.0,33,-99.99,,,0.00,Acu-Link.com,2013-11-09 20:24:00,
2013-11-09 15:39:00,59.5,30.4,29.89,SSW,202,9.4,-999.0,33,-99.99,,,0.00,Acu-Link.com,2013-11-09 20:39:00,
2013-11-09 15:55:00,59.2,31.6,29.89,SSW,202,10.9,-999.0,35,-99.99,,,0.00,Acu-Link.com,2013-11-09 20:55:00,
2013-11-09 16:17:00,58.8,31.2,29.89,South,180,6.8,-999.0,35,-99.99,,,0.00,Acu-Link.com,2013-11-09 21:17:00,
2013-11-09 16:33:00,58.5,30.9,29.89,WSW,247,6.8,-999.0,35,-99.99,,,0.00,Acu-Link.com,2013-11-09 21:33:00,
2013-11-09 16:48:00,57.9,30.4,29.89,South,180,3.2,-999.0,35,-99.99,,,0.00,Acu-Link.com,2013-11-09 21:48:00,
2013-11-09 17:03:00,57.0,31.0,29.89,ESE,112,4.7,-999.0,37,-99.99,,,0.00,Acu-Link.com,2013-11-09 22:03:00,
2013-11-09 17:18:00,55.9,30.7,29.90,WSW,247,3.7,-999.0,38,-99.99,,,0.00,Acu-Link.com,2013-11-09 22:18:00,
2013-11-09 17:33:00,54.9,31.0,29.90,SW,225,5.3,-999.0,40,-99.99,,,0.00,Acu-Link.com,2013-11-09 22:33:00,
2013-11-09 17:48:00,54.1,30.9,29.89,SSE,157,1.7,-999.0,41,-99.99,,,0.00,Acu-Link.com,2013-11-09 22:48:00,
2013-11-09 18:03:00,53.8,31.3,29.89,SSW,202,3.2,-999.0,42,-99.99,,,0.00,Acu-Link.com,2013-11-09 23:03:00,
2013-11-09 18:19:00,52.9,31.0,29.90,South,180,4.7,-999.0,43,-99.99,,,0.00,Acu-Link.com,2013-11-09 23:19:00,
2013-11-09 18:36:00,52.9,31.6,29.90,South,180,3.7,-999.0,44,-99.99,,,0.00,Acu-Link.com,2013-11-09 23:36:00,
2013-11-09 18:51:00,52.3,31.6,29.89,SE,135,6.8,-999.0,45,-99.99,,,0.00,Acu-Link.com,2013-11-09 23:51:00,
2013-11-09 19:07:00,52.7,31.4,29.90,West,270,5.8,-999.0,44,-99.99,,,0.00,Acu-Link.com,2013-11-10 00:07:00,
2013-11-09 19:22:00,52.5,31.2,29.91,WSW,247,4.7,-999.0,44,-99.99,,,0.00,Acu-Link.com,2013-11-10 00:22:00,
2013-11-09 19:37:00,52.7,31.4,29.91,SE,135,11.4,-999.0,44,-99.99,,,0.00,Acu-Link.com,2013-11-10 00:37:00,
2013-11-09 19:53:00,52.5,31.8,29.91,South,180,5.8,-999.0,45,-99.99,,,0.00,Acu-Link.com,2013-11-10 00:53:00,
2013-11-09 20:08:00,52.5,31.8,29.91,SW,225,5.8,-999.0,45,-99.99,,,0.00,Acu-Link.com,2013-11-10 01:08:00,
2013-11-09 20:23:00,52.3,32.7,29.92,SSW,202,5.3,-999.0,47,-99.99,,,0.00,Acu-Link.com,2013-11-10 01:23:00,
2013-11-09 20:38:00,52.0,32.9,29.92,WSW,247,8.3,-999.0,48,-99.99,,,0.00,Acu-Link.com,2013-11-10 01:38:00,
2013-11-09 20:53:00,51.6,33.1,29.93,SSW,202,4.7,-999.0,49,-99.99,,,0.00,Acu-Link.com,2013-11-10 01:53:00,
2013-11-09 21:08:00,51.1,33.1,29.93,South,180,4.2,-999.0,50,-99.99,,,0.00,Acu-Link.com,2013-11-10 02:08:00,
2013-11-09 21:24:00,50.7,33.7,29.93,SW,225,4.2,-999.0,52,-99.99,,,0.00,Acu-Link.com,2013-11-10 02:24:00,
2013-11-09 21:39:00,50.4,33.9,29.94,SSW,202,5.3,-999.0,53,-99.99,,,0.00,Acu-Link.com,2013-11-10 02:39:00,
2013-11-09 21:54:00,50.2,33.7,29.94,West,270,5.8,-999.0,53,-99.99,,,0.00,Acu-Link.com,2013-11-10 02:54:00,
2013-11-09 22:09:00,50.0,34.0,29.94,SW,225,5.3,-999.0,54,-99.99,,,0.00,Acu-Link.com,2013-11-10 03:09:00,
2013-11-09 22:25:00,49.8,33.8,29.95,SSW,202,5.3,-999.0,54,-99.99,,,0.00,Acu-Link.com,2013-11-10 03:25:00,
2013-11-09 22:40:00,50.0,34.5,29.94,SSW,202,3.7,-999.0,55,-99.99,,,0.00,Acu-Link.com,2013-11-10 03:40:00,
2013-11-09 22:55:00,49.5,34.5,29.95,SW,225,2.7,-999.0,56,-99.99,,,0.00,Acu-Link.com,2013-11-10 03:55:00,
2013-11-09 23:10:00,49.3,34.3,29.95,SW,225,4.2,-999.0,56,-99.99,,,0.00,Acu-Link.com,2013-11-10 04:10:00,
2013-11-09 23:25:00,49.1,34.5,29.95,West,270,5.3,-999.0,57,-99.99,,,0.00,Acu-Link.com,2013-11-10 04:25:00,
2013-11-09 23:40:00,48.9,34.8,29.95,SW,225,3.7,-999.0,58,-99.99,,,0.00,Acu-Link.com,2013-11-10 04:40:00,
2013-11-09 23:56:00,48.9,34.8,29.95,West,270,7.8,-999.0,58,-99.99,,,0.00,Acu-Link.com,2013-11-10 04:56:00,